Adelaide, California
Current Conditions -  °F | °C
As of 4:02 PM on Sunday 21 Dec 2014 (Local Time) from KPRB Reporting Station
Broken Clouds Broken Clouds  
Wind Chill: 64°   Ceiling: 2500
Heat Index: 64°   Visibility: 10mi
Dew Point: 55°   Wind: 5mph
Humidity: 72%   Direction: 50°NE
Pressure: 30.21"   Gusts: NA
Location:  35.6618°N, 120.707°W
Report Text: KPRB 220002Z AUTO 05004KT 10SM SCT017 BKN025 BKN029 18/13 A3021 RMK AO2 T01780128 TSNO
Loading
Personal Weather Stations






























Interactive Weather Map New forecast layout! Learn more

10-Day Weather Forecast

Advertisements
Track Severe Weather on mobile